Terminal Aerodrome Forecast
Issued by NWS

Home | Current Version | Previous Version | Graphics & Text | Print | Product List | Glossary On
Versions: 1 2 3 4 5 6 7 8 9 10 11 12 13 14 15 16
000
FTUS43 KMPX 191700
TAFAXN
TAF
KAXN 191728Z 1918/2018 31017G25KT P6SM BKN026
      TEMPO 1918/1920 5SM -SN BLSN OVC026
     FM192200 31016G23KT P6SM BKN035
     FM200200 29011KT P6SM SCT035
     FM201400 30011G16KT P6SM SCT040=

USA.gov is the U.S. government's official web portal to all federal, state and local government web resources and services.